aviador You're here:

LBWN Decoded Metar

VARNA in BULGARIA
Report Time2018-06-25 11:30:00
UTC Time2018-06-25 11:54:17
Flight Rules vfr VFR
Wind130° at 13 kt
W.Decomp.*RWY 09: 10.5 kt HW 7.6 kt RCW
W.Rank130° ranks 2
Current wind is above 130° avg. (8.2)
Visibility9999 m
Phenomena:N/A
Clouds:Few 037 Hf
Expected CloudBase > 3,600 ft AGL from Temp-Dew spread
CeilingNone
Temp24°C (ISA +9)
Dew Point15°C (57% RH)
AAT20.9°C
QNH1017 hPa
Density Alt1,312 ft
Elevation141 ft
Report Wrong Elevation
Raw Report
LBWN 251130Z 13013KT 9999 FEW037 24/15 Q1017 NOSIG=

Extra information for LBWN:More info

Metar Taf Metar & Taf Last 4 Metars F.Rules Stats Wind Profile Meteogram Temp Stats Airport Information Weather charts Add Link Nearby VenuesMetar ALERT Operation Metar Decoded Social comments